Hovedside
METAR-TAF:

METAR-TAF

Lufthavner :

Kuressaare, Estland

Kuressaare lufthavn

breddegrad: 58-13-48N, lengdegrad: 022-30-34E, høyde over havet: 4 m

Gjeldene værobservasjon

Denne rapporten ble laget for 46 minutter siden, klokken 06:50 UTC
Vind 17 kt fra Nord-nordvest med vindkast opp mot 28 kt, skiftende mellom Vest-nordvest og Nord
Temperatur 7°C
Luftfuktighet 81%
Trykk 1004 hPa
Sikt 10 km eller mer
Brutte skyer i en høyde av 1200 ft

METAR: EEKE 210650Z 34017G28KT 300V360 9999 BKN012 07/04 Q1004

Tid: 10:36 (07:36 UTC)

Varsel

Denne rapporten ble laget for 36 minutter siden, klokken 07:00 UTC
Varsel gyldig fra 21. klokken 08 UTC til 21. klokken 14 UTC
Vind 20 kt fra Nord-nordvest med vindkast opp mot 30 kt
Sikt 10 km eller mer
Brutte skyer i en høyde av 1200 ft
Sannsynlighet 30% :
Midlertidig
fra 21. klokken 08 UTC til 21. klokken 10 UTC
Brutte skyer i en høyde av 500 ft

TAF: EEKE 210700Z 2108/2114 33020G30KT 9999 BKN012 PROB30 TEMPO 2108/2110 BKN005

Værobservasjoner og værvarsel for over 4000 flyplasser (METAR- og TAF-rapporter).

Tilgjengelige stasjoner er representert av de røde og gule prikkene på kartet.

Hold musepekeren over prikken for å se navnet på stasjonen.

Klikk så for å se værobservasjoner og -varsler.

For å forandre kartet kan du klikke på den grønne knappen med svart kryss for å zoome inn, på den grønne knappen med strek for å zoome ut, eller på de grønne pilene for å se tilstøtende kart.


METAR-TAF: